createdAt,value
2023-06-29T00:00:51.925Z,14.09
2023-06-29T00:03:12.960Z,14.14
2023-06-29T00:05:33.922Z,14.14
2023-06-29T00:07:54.681Z,14.18
2023-06-29T00:10:15.089Z,14.17
2023-06-29T00:12:36.132Z,14.18
2023-06-29T00:14:56.592Z,14.10
2023-06-29T00:17:17.712Z,14.05
2023-06-29T00:19:38.469Z,14.03
2023-06-29T00:21:59.176Z,13.96
2023-06-29T00:24:19.584Z,13.96
2023-06-29T00:26:41.091Z,14.03
2023-06-29T00:29:01.811Z,14.03
2023-06-29T00:31:25.199Z,13.98
2023-06-29T00:33:46.047Z,13.98
2023-06-29T00:36:06.472Z,13.90
2023-06-29T00:38:26.943Z,13.91
2023-06-29T00:40:49.348Z,13.91
2023-06-29T00:43:10.095Z,13.94
2023-06-29T00:45:31.082Z,13.86
2023-06-29T00:47:52.612Z,13.77
2023-06-29T00:50:14.264Z,13.77
2023-06-29T00:52:35.947Z,13.73
2023-06-29T00:54:57.626Z,13.70
2023-06-29T00:57:18.381Z,13.71
2023-06-29T00:59:38.903Z,13.72
2023-06-29T01:01:59.802Z,13.70
2023-06-29T01:04:26.122Z,13.73
2023-06-29T01:07:05.863Z,13.71
2023-06-29T01:09:27.412Z,13.70
2023-06-29T01:11:50.308Z,13.67
2023-06-29T01:14:14.923Z,13.62
2023-06-29T01:16:36.997Z,13.62
2023-06-29T01:18:58.459Z,13.59
2023-06-29T01:21:19.913Z,13.54
2023-06-29T01:23:41.303Z,13.49
2023-06-29T01:26:02.110Z,13.48
2023-06-29T01:28:23.160Z,13.49
2023-06-29T01:30:50.688Z,13.48
2023-06-29T01:33:12.288Z,13.46
2023-06-29T01:35:33.413Z,13.45
2023-06-29T01:38:03.145Z,13.47
2023-06-29T01:40:29.236Z,13.41
2023-06-29T01:42:51.378Z,13.33
2023-06-29T01:45:13.242Z,13.33
2023-06-29T01:47:35.005Z,13.31
2023-06-29T01:49:56.506Z,13.27
2023-06-29T01:52:17.480Z,13.30
2023-06-29T01:54:38.128Z,13.30
2023-06-29T01:56:59.124Z,13.35
2023-06-29T01:59:19.819Z,13.32
2023-06-29T02:01:40.302Z,13.32
2023-06-29T02:04:00.848Z,13.31
2023-06-29T02:06:21.236Z,13.26
2023-06-29T02:08:43.586Z,13.29
2023-06-29T02:11:04.708Z,13.32
2023-06-29T02:13:25.502Z,13.33
2023-06-29T02:15:46.365Z,13.37
2023-06-29T02:18:07.028Z,13.32
2023-06-29T02:20:27.335Z,13.31
2023-06-29T02:22:47.723Z,13.29
2023-06-29T02:25:11.756Z,13.20
2023-06-29T02:27:32.286Z,13.18
2023-06-29T02:29:52.766Z,13.13
2023-06-29T02:32:13.184Z,13.11
2023-06-29T02:34:33.562Z,13.06
2023-06-29T02:36:54.272Z,13.03
2023-06-29T02:39:15.054Z,12.96
2023-06-29T02:41:35.461Z,12.95
2023-06-29T02:43:55.862Z,12.96
2023-06-29T02:46:17.157Z,12.85
2023-06-29T02:48:37.816Z,12.94
2023-06-29T02:50:58.259Z,13.00
2023-06-29T02:53:18.802Z,13.00
2023-06-29T02:55:39.314Z,12.92
2023-06-29T02:57:59.810Z,12.85
2023-06-29T03:00:20.412Z,12.84
2023-06-29T03:02:40.753Z,12.86
2023-06-29T03:05:01.417Z,12.95
2023-06-29T03:07:21.897Z,12.94
2023-06-29T03:09:42.537Z,12.89
2023-06-29T03:12:02.916Z,12.89
2023-06-29T03:14:23.525Z,12.92
2023-06-29T03:16:44.239Z,12.89
2023-06-29T03:19:05.137Z,12.81
2023-06-29T03:21:25.449Z,12.88
2023-06-29T03:23:45.793Z,12.83
2023-06-29T03:26:06.312Z,12.84
2023-06-29T03:28:26.802Z,12.74
2023-06-29T03:30:47.339Z,12.68
2023-06-29T03:33:08.187Z,12.65
2023-06-29T03:35:29.035Z,12.66
2023-06-29T03:37:49.715Z,12.67
2023-06-29T03:40:10.774Z,12.70
2023-06-29T03:42:31.115Z,12.78
2023-06-29T03:44:51.465Z,12.81
2023-06-29T03:47:11.940Z,12.84
2023-06-29T03:49:32.475Z,12.83
2023-06-29T03:51:52.988Z,12.78
2023-06-29T03:54:13.383Z,13.01
2023-06-29T03:56:34.071Z,12.94
2023-06-29T03:58:54.814Z,12.93
2023-06-29T04:01:15.122Z,13.01
2023-06-29T04:03:35.547Z,12.97
2023-06-29T04:05:56.415Z,12.85
2023-06-29T04:08:16.969Z,12.88
2023-06-29T04:10:37.411Z,12.92
2023-06-29T04:12:58.218Z,12.96
2023-06-29T04:15:18.665Z,12.98
2023-06-29T04:17:39.036Z,12.93
2023-06-29T04:19:59.432Z,13.06
2023-06-29T04:22:19.730Z,13.09
2023-06-29T04:24:40.091Z,13.16
2023-06-29T04:27:01.487Z,13.18
2023-06-29T04:29:22.449Z,13.36
2023-06-29T04:31:42.978Z,13.42
2023-06-29T04:34:03.901Z,13.44
2023-06-29T04:36:25.643Z,13.44
2023-06-29T04:38:47.125Z,13.57
2023-06-29T04:41:08.341Z,13.68
2023-06-29T04:43:28.755Z,13.78
2023-06-29T04:45:49.342Z,13.85
2023-06-29T04:48:10.961Z,14.04
2023-06-29T04:50:36.502Z,14.23
2023-06-29T04:52:58.394Z,14.37
2023-06-29T04:55:18.803Z,14.43
2023-06-29T04:57:39.472Z,14.36
2023-06-29T05:00:00.101Z,14.40
2023-06-29T05:02:20.431Z,14.36
2023-06-29T05:04:40.821Z,14.49
2023-06-29T05:07:01.302Z,14.61
2023-06-29T05:09:21.904Z,14.61
2023-06-29T05:11:42.878Z,14.67
2023-06-29T05:14:03.410Z,14.72
2023-06-29T05:16:23.975Z,14.70
2023-06-29T05:18:44.427Z,14.76
2023-06-29T05:21:05.133Z,14.92
2023-06-29T05:23:25.792Z,15.06
2023-06-29T05:25:46.928Z,15.20
2023-06-29T05:28:07.498Z,15.32
2023-06-29T05:30:28.105Z,15.33
2023-06-29T05:32:48.710Z,15.45
2023-06-29T05:35:09.520Z,15.60
2023-06-29T05:37:34.634Z,15.72
2023-06-29T05:39:56.664Z,15.79
2023-06-29T05:42:17.361Z,15.85
2023-06-29T05:44:37.596Z,15.91
2023-06-29T05:46:57.993Z,15.94
2023-06-29T05:49:18.391Z,16.04
2023-06-29T05:51:38.649Z,16.17
2023-06-29T05:53:59.174Z,16.27
2023-06-29T05:56:20.204Z,16.38
2023-06-29T05:58:40.609Z,16.42
2023-06-29T06:01:02.248Z,16.55
2023-06-29T06:03:24.671Z,16.64
2023-06-29T06:05:45.633Z,16.79
2023-06-29T06:08:05.945Z,16.98
2023-06-29T06:10:26.466Z,17.15
2023-06-29T06:12:47.117Z,17.19
2023-06-29T06:15:12.059Z,17.24
2023-06-29T06:17:32.900Z,17.37
2023-06-29T06:19:55.574Z,17.52
2023-06-29T06:22:16.441Z,17.62
2023-06-29T06:24:37.613Z,17.74
2023-06-29T06:26:58.351Z,17.96
2023-06-29T06:29:18.701Z,18.05
2023-06-29T06:31:39.313Z,18.11
2023-06-29T06:34:00.245Z,18.25
2023-06-29T06:36:21.532Z,18.39
2023-06-29T06:38:49.962Z,18.56
2023-06-29T06:41:11.912Z,18.67
2023-06-29T06:43:32.444Z,18.58
2023-06-29T06:45:53.805Z,18.64
2023-06-29T06:48:14.490Z,18.79
2023-06-29T06:50:35.207Z,18.96
2023-06-29T06:52:55.710Z,19.09
2023-06-29T06:55:16.708Z,19.33
2023-06-29T06:57:37.755Z,19.49
2023-06-29T06:59:58.119Z,19.72
2023-06-29T07:02:18.761Z,19.94
2023-06-29T07:04:39.829Z,20.10
2023-06-29T07:07:00.412Z,20.21
2023-06-29T07:09:21.024Z,20.46
2023-06-29T07:11:41.937Z,20.53
2023-06-29T07:14:02.673Z,20.63
2023-06-29T07:16:25.917Z,20.81
2023-06-29T07:21:31.826Z,21.24
2023-06-29T07:26:15.881Z,21.38
2023-06-29T07:28:36.426Z,21.52
2023-06-29T07:30:57.214Z,21.74
2023-06-29T07:33:18.219Z,21.77
2023-06-29T07:35:38.829Z,22.14
2023-06-29T07:37:59.364Z,22.18
2023-06-29T07:40:21.076Z,22.29
2023-06-29T07:42:41.865Z,22.33
2023-06-29T07:45:02.571Z,22.39
2023-06-29T07:47:24.096Z,22.50
2023-06-29T07:49:44.998Z,22.82
2023-06-29T07:52:05.890Z,22.90
2023-06-29T07:54:28.240Z,23.14
2023-06-29T07:59:12.534Z,23.41
2023-06-29T08:01:35.401Z,23.48
2023-06-29T08:04:02.581Z,23.48
2023-06-29T08:08:48.210Z,23.73
2023-06-29T08:11:13.490Z,23.85
2023-06-29T08:13:34.073Z,24.05
2023-06-29T08:15:54.650Z,24.16
2023-06-29T08:18:14.987Z,24.34
2023-06-29T08:20:35.468Z,24.35
2023-06-29T08:22:56.483Z,24.44
2023-06-29T08:25:17.322Z,24.60
2023-06-29T08:27:37.829Z,24.68
2023-06-29T08:29:57.994Z,24.49
2023-06-29T08:32:18.803Z,24.65
2023-06-29T08:34:39.636Z,24.70
2023-06-29T08:37:00.091Z,24.79
2023-06-29T08:39:20.776Z,24.71
2023-06-29T08:41:41.577Z,24.87
2023-06-29T08:44:05.278Z,24.95
2023-06-29T08:46:28.449Z,25.05
2023-06-29T08:48:49.878Z,25.22
2023-06-29T08:51:11.830Z,25.31
2023-06-29T08:53:32.875Z,25.28
2023-06-29T08:55:54.491Z,25.36
2023-06-29T08:58:15.243Z,25.33
2023-06-29T09:00:37.255Z,25.46
2023-06-29T09:02:57.772Z,25.64
2023-06-29T09:05:18.462Z,25.73
2023-06-29T09:07:42.230Z,25.89
2023-06-29T09:10:05.531Z,26.09
2023-06-29T09:12:28.676Z,25.32
2023-06-29T09:14:49.468Z,25.14
2023-06-29T09:17:15.633Z,25.42
2023-06-29T09:19:36.023Z,25.65
2023-06-29T09:21:58.135Z,25.61
2023-06-29T09:24:19.534Z,25.90
2023-06-29T09:26:40.330Z,26.03
2023-06-29T09:29:01.974Z,26.20
2023-06-29T09:31:22.804Z,26.24
2023-06-29T09:33:43.328Z,26.33
2023-06-29T09:36:09.528Z,25.67
2023-06-29T09:38:31.130Z,26.10
2023-06-29T09:40:53.437Z,26.27
2023-06-29T09:43:22.421Z,26.45
2023-06-29T09:45:43.072Z,26.68
2023-06-29T09:50:28.172Z,26.61
2023-06-29T09:52:54.878Z,26.56
2023-06-29T09:55:17.045Z,26.73
2023-06-29T09:57:40.426Z,27.08
2023-06-29T10:00:02.166Z,27.11
2023-06-29T10:02:22.585Z,27.17
2023-06-29T10:04:43.527Z,27.35
2023-06-29T10:07:13.162Z,26.75
2023-06-29T10:09:39.139Z,26.53
2023-06-29T10:12:00.893Z,26.50
2023-06-29T10:14:23.156Z,26.88
2023-06-29T10:16:47.213Z,27.16
2023-06-29T10:19:16.521Z,27.00
2023-06-29T10:21:37.537Z,26.79
2023-06-29T10:23:58.838Z,26.59
2023-06-29T10:26:19.665Z,26.82
2023-06-29T10:28:41.244Z,26.91
2023-06-29T10:31:01.639Z,26.98
2023-06-29T10:33:26.279Z,27.02
2023-06-29T10:36:02.675Z,26.41
2023-06-29T10:38:28.553Z,26.45
2023-06-29T10:40:50.104Z,26.13
2023-06-29T10:43:10.468Z,26.77
2023-06-29T10:45:32.178Z,26.53
2023-06-29T10:48:01.849Z,26.60
2023-06-29T10:50:41.511Z,27.07
2023-06-29T10:53:04.390Z,26.78
2023-06-29T10:55:27.112Z,27.16
2023-06-29T10:57:49.680Z,27.36
2023-06-29T11:00:10.658Z,26.93
2023-06-29T11:02:32.038Z,27.02
2023-06-29T11:04:53.458Z,27.32
2023-06-29T11:07:15.210Z,27.31
2023-06-29T11:09:35.956Z,27.13
2023-06-29T11:11:56.629Z,26.58
2023-06-29T11:14:18.466Z,26.61
2023-06-29T11:16:40.442Z,26.63
2023-06-29T11:19:04.288Z,26.93
2023-06-29T11:21:28.192Z,26.90
2023-06-29T11:23:52.464Z,26.29
2023-06-29T11:26:13.061Z,26.06
2023-06-29T11:28:34.154Z,26.43
2023-06-29T11:30:56.312Z,26.32
2023-06-29T11:33:33.750Z,26.49
2023-06-29T11:35:56.463Z,26.89
2023-06-29T11:38:17.084Z,27.15
2023-06-29T11:40:38.010Z,27.35
2023-06-29T11:42:58.506Z,27.54
2023-06-29T11:45:19.445Z,27.39
2023-06-29T11:47:39.977Z,27.35
2023-06-29T11:50:01.724Z,27.01
2023-06-29T11:52:22.973Z,26.66
2023-06-29T11:54:44.350Z,26.40
2023-06-29T11:57:05.333Z,26.22
2023-06-29T11:59:27.921Z,26.05
2023-06-29T12:01:48.557Z,26.20
2023-06-29T12:04:10.430Z,26.39
2023-06-29T12:06:31.131Z,26.43
2023-06-29T12:08:52.585Z,26.39
2023-06-29T12:11:20.492Z,26.25
2023-06-29T12:13:46.841Z,26.35
2023-06-29T12:18:36.498Z,26.25
2023-06-29T12:21:02.077Z,26.44
2023-06-29T12:23:23.224Z,26.62
2023-06-29T12:25:47.388Z,26.70
2023-06-29T12:28:08.156Z,26.69
2023-06-29T12:30:28.740Z,26.62
2023-06-29T12:32:50.391Z,26.78
2023-06-29T12:35:12.759Z,26.94
2023-06-29T12:37:33.468Z,27.04
2023-06-29T12:39:55.417Z,27.14
2023-06-29T12:42:16.057Z,27.05
2023-06-29T12:44:37.371Z,26.66
2023-06-29T12:46:57.862Z,26.59
2023-06-29T12:49:18.657Z,26.76
2023-06-29T12:51:39.038Z,26.64
2023-06-29T12:53:59.373Z,26.38
2023-06-29T12:56:20.627Z,26.38
2023-06-29T12:58:41.522Z,26.23
2023-06-29T13:01:01.956Z,26.22
2023-06-29T13:03:22.971Z,26.22
2023-06-29T13:05:43.859Z,26.39
2023-06-29T13:08:04.993Z,26.55
2023-06-29T13:10:25.649Z,26.72
2023-06-29T13:12:46.039Z,26.44
2023-06-29T13:15:07.349Z,26.46
2023-06-29T13:17:27.948Z,26.61
2023-06-29T13:19:49.318Z,26.75
2023-06-29T13:22:10.447Z,26.82
2023-06-29T13:24:31.413Z,27.08
2023-06-29T13:26:52.018Z,26.89
2023-06-29T13:29:12.487Z,26.78
2023-06-29T13:31:33.346Z,27.10
2023-06-29T13:33:53.914Z,27.12
2023-06-29T13:36:14.293Z,27.33
2023-06-29T13:38:34.608Z,27.66
2023-06-29T13:40:55.102Z,27.55
2023-06-29T13:43:15.321Z,27.66
2023-06-29T13:45:35.630Z,27.73
2023-06-29T13:48:00.780Z,27.62
2023-06-29T13:50:25.500Z,27.58
2023-06-29T13:52:49.289Z,27.76
2023-06-29T13:55:09.647Z,27.91
2023-06-29T13:57:30.079Z,27.89
2023-06-29T13:59:50.592Z,27.86
2023-06-29T14:02:11.360Z,27.62
2023-06-29T14:04:32.263Z,27.48
2023-06-29T14:06:53.251Z,27.53
2023-06-29T14:09:14.834Z,27.31
2023-06-29T14:11:35.498Z,27.07
2023-06-29T14:13:58.323Z,27.03
2023-06-29T14:16:19.134Z,27.06
2023-06-29T14:18:39.876Z,27.22
2023-06-29T14:21:00.690Z,27.38
2023-06-29T14:23:25.528Z,27.57
2023-06-29T14:25:46.566Z,27.67
2023-06-29T14:28:07.525Z,27.39
2023-06-29T14:30:28.033Z,27.37
2023-06-29T14:32:51.223Z,27.49
2023-06-29T14:35:12.607Z,27.54
2023-06-29T14:37:50.639Z,27.70
2023-06-29T14:40:11.444Z,27.68
2023-06-29T14:42:32.178Z,27.70
2023-06-29T14:44:52.521Z,27.32
2023-06-29T14:47:13.080Z,27.41
2023-06-29T14:49:33.619Z,27.49
2023-06-29T14:51:53.984Z,27.67
2023-06-29T14:54:14.446Z,27.28
2023-06-29T14:56:36.114Z,27.35
2023-06-29T14:58:56.513Z,27.49
2023-06-29T15:01:17.473Z,27.56
2023-06-29T15:03:39.807Z,27.22
2023-06-29T15:06:00.570Z,26.90
2023-06-29T15:08:21.055Z,26.84
2023-06-29T15:10:41.381Z,26.67
2023-06-29T15:13:01.733Z,26.98
2023-06-29T15:15:23.536Z,27.28
2023-06-29T15:17:44.378Z,27.26
2023-06-29T15:20:05.991Z,27.36
2023-06-29T15:22:26.419Z,27.69
2023-06-29T15:24:46.858Z,27.71
2023-06-29T15:27:07.403Z,27.93
2023-06-29T15:29:28.078Z,27.90
2023-06-29T15:31:48.376Z,27.92
2023-06-29T15:34:09.262Z,27.90
2023-06-29T15:36:29.595Z,27.79
2023-06-29T15:38:50.501Z,27.75
2023-06-29T15:41:11.162Z,27.87
2023-06-29T15:43:32.307Z,27.84
2023-06-29T15:45:53.674Z,27.92
2023-06-29T15:48:15.766Z,27.93
2023-06-29T15:50:36.733Z,27.90
2023-06-29T15:52:57.537Z,27.72
2023-06-29T15:55:18.648Z,27.86
2023-06-29T15:57:39.603Z,28.00
2023-06-29T16:00:01.104Z,28.21
2023-06-29T16:02:22.041Z,28.04
2023-06-29T16:04:42.664Z,27.76
2023-06-29T16:07:07.654Z,27.90
2023-06-29T16:09:32.089Z,27.89
2023-06-29T16:11:52.736Z,27.85
2023-06-29T16:14:13.162Z,27.56
2023-06-29T16:16:33.560Z,27.47
2023-06-29T16:18:54.475Z,27.41
2023-06-29T16:21:15.282Z,27.65
2023-06-29T16:23:37.932Z,27.87
2023-06-29T16:25:58.540Z,27.77
2023-06-29T16:28:19.155Z,27.73
2023-06-29T16:30:39.818Z,27.85
2023-06-29T16:33:00.822Z,27.77
2023-06-29T16:35:21.484Z,27.89
2023-06-29T16:37:44.464Z,28.46
2023-06-29T16:40:06.027Z,28.33
2023-06-29T16:42:26.838Z,28.46
2023-06-29T16:44:47.383Z,28.60
2023-06-29T16:47:07.970Z,29.23
2023-06-29T16:49:28.783Z,29.07
2023-06-29T16:51:49.391Z,28.54
2023-06-29T16:54:09.780Z,28.67
2023-06-29T16:56:30.353Z,28.49
2023-06-29T16:58:51.119Z,28.10
2023-06-29T17:01:11.919Z,28.03
2023-06-29T17:03:32.750Z,27.62
2023-06-29T17:05:53.774Z,27.10
2023-06-29T17:08:14.625Z,27.16
2023-06-29T17:10:35.194Z,26.97
2023-06-29T17:12:55.677Z,26.88
2023-06-29T17:15:16.251Z,26.74
2023-06-29T17:17:36.788Z,26.42
2023-06-29T17:19:58.475Z,26.51
2023-06-29T17:22:20.152Z,26.43
2023-06-29T17:24:41.273Z,26.37
2023-06-29T17:27:02.211Z,26.36
2023-06-29T17:29:23.258Z,26.36
2023-06-29T17:31:44.163Z,26.30
2023-06-29T17:34:05.150Z,25.96
2023-06-29T17:36:27.826Z,26.01
2023-06-29T17:38:48.531Z,25.90
2023-06-29T17:41:10.337Z,25.89
2023-06-29T17:43:31.876Z,25.93
2023-06-29T17:45:52.546Z,25.78
2023-06-29T17:48:13.016Z,25.70
2023-06-29T17:50:33.821Z,25.62
2023-06-29T17:52:54.260Z,25.66
2023-06-29T17:55:17.049Z,25.78
2023-06-29T17:57:38.008Z,25.78
2023-06-29T17:59:58.728Z,25.86
2023-06-29T18:02:19.977Z,25.69
2023-06-29T18:04:40.942Z,25.66
2023-06-29T18:07:01.744Z,25.70
2023-06-29T18:09:22.316Z,25.65
2023-06-29T18:11:43.332Z,25.63
2023-06-29T18:14:03.825Z,25.56
2023-06-29T18:16:25.020Z,25.48
2023-06-29T18:18:45.872Z,25.40
2023-06-29T18:21:06.931Z,25.33
2023-06-29T18:23:27.585Z,25.28
2023-06-29T18:25:48.333Z,25.26
2023-06-29T18:28:09.289Z,25.26
2023-06-29T18:30:29.851Z,25.26
2023-06-29T18:32:51.302Z,25.26
2023-06-29T18:35:12.659Z,25.18
2023-06-29T18:37:33.430Z,25.20
2023-06-29T18:39:54.018Z,25.25
2023-06-29T18:42:17.643Z,25.15
2023-06-29T18:44:38.610Z,25.08
2023-06-29T18:47:13.628Z,24.97
2023-06-29T18:49:49.830Z,24.89
2023-06-29T18:52:11.952Z,24.91
2023-06-29T18:54:34.575Z,24.91
2023-06-29T18:56:55.179Z,24.94
2023-06-29T18:59:16.076Z,24.88
2023-06-29T19:01:37.020Z,24.98
2023-06-29T19:03:57.832Z,24.92
2023-06-29T19:06:18.741Z,24.84
2023-06-29T19:08:39.125Z,24.83
2023-06-29T19:11:00.037Z,24.73
2023-06-29T19:13:20.541Z,24.71
2023-06-29T19:15:41.845Z,24.82
2023-06-29T19:18:02.838Z,24.89
2023-06-29T19:20:23.856Z,24.79
2023-06-29T19:22:44.978Z,24.87
2023-06-29T19:25:07.800Z,24.83
2023-06-29T19:27:28.266Z,24.69
2023-06-29T19:29:49.109Z,24.73
2023-06-29T19:32:10.303Z,24.84
2023-06-29T19:34:32.100Z,24.86
2023-06-29T19:36:52.691Z,24.89
2023-06-29T19:39:13.403Z,24.90
2023-06-29T19:41:33.711Z,24.90
2023-06-29T19:43:54.010Z,24.82
2023-06-29T19:46:14.410Z,24.91
2023-06-29T19:48:35.166Z,24.90
2023-06-29T19:50:55.776Z,24.84
2023-06-29T19:53:16.561Z,24.77
2023-06-29T19:55:37.267Z,24.67
2023-06-29T19:57:58.582Z,24.50
2023-06-29T20:00:19.660Z,24.39
2023-06-29T20:02:40.266Z,24.20
2023-06-29T20:05:01.173Z,23.66
2023-06-29T20:07:21.676Z,23.32
2023-06-29T20:09:42.643Z,23.25
2023-06-29T20:12:03.463Z,23.13
2023-06-29T20:14:24.295Z,22.98
2023-06-29T20:16:44.850Z,22.92
2023-06-29T20:19:05.345Z,23.04
2023-06-29T20:21:25.663Z,23.19
2023-06-29T20:23:51.409Z,23.38
2023-06-29T20:26:12.502Z,23.35
2023-06-29T20:28:32.960Z,23.34
2023-06-29T20:30:54.049Z,23.33
2023-06-29T20:33:14.501Z,23.33
2023-06-29T20:35:35.277Z,23.29
2023-06-29T20:37:58.845Z,23.29
2023-06-29T20:40:19.238Z,23.35
2023-06-29T20:42:39.964Z,23.42
2023-06-29T20:45:02.645Z,23.48
2023-06-29T20:47:24.409Z,23.40
2023-06-29T20:49:45.184Z,23.22
2023-06-29T20:52:06.276Z,23.08
2023-06-29T20:54:28.166Z,23.00
2023-06-29T20:56:48.516Z,22.97
2023-06-29T20:59:08.935Z,22.92
2023-06-29T21:01:29.454Z,22.43
2023-06-29T21:03:50.356Z,22.34
2023-06-29T21:06:11.521Z,22.37
2023-06-29T21:08:31.948Z,22.34
2023-06-29T21:10:52.367Z,22.41
2023-06-29T21:13:13.191Z,22.35
2023-06-29T21:15:34.012Z,22.33
2023-06-29T21:17:55.596Z,22.27
2023-06-29T21:20:16.636Z,22.27
2023-06-29T21:22:37.673Z,22.36
2023-06-29T21:24:58.381Z,22.43
2023-06-29T21:27:19.825Z,22.39
2023-06-29T21:29:44.434Z,22.31
2023-06-29T21:32:09.776Z,22.25
2023-06-29T21:34:31.719Z,22.27
2023-06-29T21:36:52.671Z,22.25
2023-06-29T21:39:13.353Z,22.19
2023-06-29T21:41:33.718Z,22.26
2023-06-29T21:43:54.090Z,22.21
2023-06-29T21:46:14.381Z,22.15
2023-06-29T21:48:37.056Z,22.07
2023-06-29T21:50:57.917Z,21.83
2023-06-29T21:53:18.437Z,21.70
2023-06-29T21:55:38.667Z,21.68
2023-06-29T21:57:59.008Z,21.79
2023-06-29T22:00:19.690Z,21.77
2023-06-29T22:02:40.771Z,22.01
2023-06-29T22:05:01.209Z,22.07
2023-06-29T22:07:21.624Z,22.03
2023-06-29T22:09:42.039Z,22.01
2023-06-29T22:12:03.290Z,21.97
2023-06-29T22:14:24.427Z,21.97
2023-06-29T22:16:45.032Z,21.94
2023-06-29T22:19:10.566Z,21.93
2023-06-29T22:21:31.475Z,21.97
2023-06-29T22:23:53.390Z,22.01
2023-06-29T22:26:14.192Z,22.04
2023-06-29T22:28:34.722Z,22.08
2023-06-29T22:30:55.271Z,22.26
2023-06-29T22:33:16.059Z,22.31
2023-06-29T22:35:36.848Z,22.34
2023-06-29T22:37:58.206Z,22.30
2023-06-29T22:40:19.170Z,22.31
2023-06-29T22:42:40.099Z,22.32
2023-06-29T22:45:00.525Z,22.29
2023-06-29T22:47:22.428Z,22.02
2023-06-29T22:49:43.478Z,22.01
2023-06-29T22:52:04.447Z,21.98
2023-06-29T22:54:24.903Z,21.96
2023-06-29T22:56:45.334Z,22.12
2023-06-29T22:59:10.078Z,22.13
2023-06-29T23:01:30.841Z,22.12
2023-06-29T23:03:51.682Z,22.03
2023-06-29T23:06:12.576Z,21.99
2023-06-29T23:08:33.446Z,21.86
2023-06-29T23:10:53.751Z,21.50
2023-06-29T23:13:17.468Z,21.42
2023-06-29T23:15:43.251Z,21.38
2023-06-29T23:18:04.626Z,21.49
2023-06-29T23:20:27.272Z,21.49
2023-06-29T23:22:48.270Z,21.39
2023-06-29T23:25:10.239Z,21.38
2023-06-29T23:27:30.850Z,21.40
2023-06-29T23:29:54.037Z,21.34
2023-06-29T23:32:14.680Z,21.38
2023-06-29T23:34:35.061Z,21.30
2023-06-29T23:36:55.537Z,21.29
2023-06-29T23:39:16.937Z,21.15
2023-06-29T23:41:37.488Z,21.13
2023-06-29T23:44:07.468Z,21.08
2023-06-29T23:46:28.037Z,21.02
2023-06-29T23:48:48.939Z,21.04
2023-06-29T23:51:10.089Z,20.99
2023-06-29T23:53:30.897Z,20.93
2023-06-29T23:55:51.432Z,20.85
2023-06-29T23:58:11.816Z,20.89
